Time;durP1;ratioP1;P1;durP2;ratioP2;P2;SDS_P1;SDS_P2;PMS_P1;PMS_P2;Temp;Humidity;BMP_temperature;BMP_pressure;BME280_temperature;BME280_humidity;BME280_pressure;Samples;Min_cycle;Max_cycle;Signal;HPM_P1;HPM_P2
2023/12/12 00:00:32;;;;;;;15.90;6.03;;;;;;;;;;5072464;28;20484;-83
2023/12/12 00:02:59;;;;;;;19.03;6.00;;;;;;;;;;5075650;28;20459;-82
2023/12/12 00:05:26;;;;;;;9.87;5.70;;;;;;;;;;5078273;28;20499;-82
2023/12/12 00:07:52;;;;;;;11.20;5.50;;;;;;;;;;5076870;28;20539;-83
2023/12/12 00:10:20;;;;;;;15.23;5.20;;;;;;;;;;5077445;28;20470;-82
2023/12/12 00:12:46;;;;;;;14.00;6.40;;;;;;;;;;5073559;28;20472;-81
2023/12/12 00:15:13;;;;;;;11.93;5.60;;;;;;;;;;5070759;28;20526;-82
2023/12/12 00:17:39;;;;;;;13.63;5.27;;;;;;;;;;5077230;28;20452;-83
2023/12/12 00:20:09;;;;;;;9.50;6.00;;;;;;;;;;5076016;28;20506;-83
2023/12/12 00:22:35;;;;;;;15.07;6.00;;;;;;;;;;5071240;28;20491;-81
2023/12/12 00:25:02;;;;;;;8.93;5.67;;;;;;;;;;5077506;28;20703;-82
2023/12/12 00:27:28;;;;;;;10.47;5.47;;;;;;;;;;5074714;28;20448;-82
2023/12/12 00:29:55;;;;;;;9.90;5.93;;;;;;;;;;5077713;28;21006;-83
2023/12/12 00:32:21;;;;;;;12.17;5.90;;;;;;;;;;5074662;28;20494;-83
2023/12/12 00:34:48;;;;;;;11.67;5.87;;;;;;;;;;5076143;28;20479;-83
2023/12/12 00:37:15;;;;;;;7.40;5.40;;;;;;;;;;5077491;28;20467;-82
2023/12/12 00:39:42;;;;;;;9.40;5.40;;;;;;;;;;5075559;28;20503;-82
2023/12/12 00:42:08;;;;;;;11.00;5.70;;;;;;;;;;5076666;28;20475;-83
2023/12/12 00:44:35;;;;;;;15.80;6.07;;;;;;;;;;5078140;28;20475;-82
2023/12/12 00:47:01;;;;;;;11.10;5.57;;;;;;;;;;5069512;28;20456;-83
2023/12/12 00:49:28;;;;;;;15.23;5.60;;;;;;;;;;5076060;28;20483;-82
2023/12/12 00:51:54;;;;;;;12.70;5.57;;;;;;;;;;5075369;28;20599;-83
2023/12/12 00:54:22;;;;;;;9.50;5.60;;;;;;;;;;5072739;28;21062;-82
2023/12/12 00:56:48;;;;;;;10.20;5.90;;;;;;;;;;5074226;28;20483;-83
2023/12/12 00:59:15;;;;;;;11.03;5.87;;;;;;;;;;5070071;28;20522;-83
2023/12/12 01:01:41;;;;;;;13.27;5.80;;;;;;;;;;5072864;28;20907;-83
2023/12/12 01:04:08;;;;;;;17.07;5.90;;;;;;;;;;5072305;28;20532;-82
2023/12/12 01:06:35;;;;;;;11.33;6.60;;;;;;;;;;5066224;28;20945;-83
2023/12/12 01:09:01;;;;;;;13.47;6.70;;;;;;;;;;5070655;28;21025;-83
2023/12/12 01:11:29;;;;;;;12.67;5.73;;;;;;;;;;5075584;28;20737;-81
2023/12/12 01:13:55;;;;;;;8.23;7.03;;;;;;;;;;5073504;28;20520;-82
2023/12/12 01:16:22;;;;;;;8.50;5.43;;;;;;;;;;5069842;28;20861;-83
2023/12/12 01:18:48;;;;;;;9.30;6.47;;;;;;;;;;5068746;28;20491;-82
2023/12/12 01:21:14;;;;;;;14.37;6.47;;;;;;;;;;5069256;28;20476;-83
2023/12/12 01:23:48;;;;;;;14.97;6.63;;;;;;;;;;5074284;28;20460;-83
2023/12/12 01:26:14;;;;;;;8.40;5.40;;;;;;;;;;5072294;28;20457;-82
2023/12/12 01:28:42;;;;;;;15.13;6.13;;;;;;;;;;5076400;28;20480;-82
2023/12/12 01:31:08;;;;;;;10.47;5.60;;;;;;;;;;5071048;28;21154;-83
2023/12/12 01:33:35;;;;;;;9.13;5.80;;;;;;;;;;5074153;28;20494;-82
2023/12/12 01:36:01;;;;;;;13.47;5.30;;;;;;;;;;5077910;28;20444;-81
2023/12/12 01:38:28;;;;;;;10.57;5.57;;;;;;;;;;5067009;28;20452;-83
2023/12/12 01:40:55;;;;;;;11.83;6.30;;;;;;;;;;5077993;28;20448;-83
2023/12/12 01:43:25;;;;;;;8.67;5.50;;;;;;;;;;5071953;28;20878;-83
2023/12/12 01:45:54;;;;;;;6.97;5.30;;;;;;;;;;5074969;28;20459;-83
2023/12/12 01:48:21;;;;;;;10.43;5.63;;;;;;;;;;5073796;28;20451;-83
2023/12/12 01:50:47;;;;;;;9.27;5.27;;;;;;;;;;5077871;28;20535;-83
2023/12/12 01:53:14;;;;;;;8.13;5.20;;;;;;;;;;5071793;28;20494;-83
2023/12/12 01:55:41;;;;;;;9.00;5.23;;;;;;;;;;5074452;28;20453;-82
2023/12/12 01:58:07;;;;;;;8.13;5.23;;;;;;;;;;5074746;28;20444;-82
2023/12/12 02:00:34;;;;;;;11.60;4.83;;;;;;;;;;5074323;28;20460;-82
2023/12/12 02:03:02;;;;;;;7.70;4.80;;;;;;;;;;5076722;28;20475;-81
2023/12/12 02:05:29;;;;;;;12.30;5.90;;;;;;;;;;5069660;28;20484;-82
2023/12/12 02:07:57;;;;;;;7.87;5.10;;;;;;;;;;5070625;28;20522;-83
2023/12/12 02:10:23;;;;;;;8.13;5.10;;;;;;;;;;5072057;28;20891;-82
2023/12/12 02:12:49;;;;;;;11.00;5.40;;;;;;;;;;5071177;28;20484;-81
2023/12/12 02:15:16;;;;;;;5.80;4.57;;;;;;;;;;5064823;28;20479;-82
2023/12/12 02:17:42;;;;;;;8.40;4.63;;;;;;;;;;5074350;28;20555;-82
2023/12/12 02:20:11;;;;;;;8.97;5.03;;;;;;;;;;5074934;28;20467;-82
2023/12/12 02:22:39;;;;;;;11.70;5.17;;;;;;;;;;5070439;28;20461;-83
2023/12/12 02:25:06;;;;;;;8.00;4.57;;;;;;;;;;5070651;28;20544;-83
2023/12/12 02:27:32;;;;;;;8.47;5.07;;;;;;;;;;5076782;28;20506;-83
2023/12/12 02:29:59;;;;;;;8.17;4.43;;;;;;;;;;5071739;28;20888;-84
2023/12/12 02:32:25;;;;;;;10.20;5.80;;;;;;;;;;5073039;28;20518;-83
2023/12/12 02:34:52;;;;;;;11.77;5.87;;;;;;;;;;5074843;28;20673;-81
2023/12/12 02:37:18;;;;;;;9.47;4.83;;;;;;;;;;5072867;28;20495;-81
2023/12/12 02:39:46;;;;;;;9.70;5.37;;;;;;;;;;5070742;28;20535;-83
2023/12/12 02:42:12;;;;;;;8.80;5.57;;;;;;;;;;5073904;28;20485;-82
2023/12/12 02:44:39;;;;;;;7.10;5.20;;;;;;;;;;5072168;28;20490;-81
2023/12/12 02:47:05;;;;;;;10.20;5.53;;;;;;;;;;5075456;28;20498;-84
2023/12/12 02:49:31;;;;;;;7.27;5.00;;;;;;;;;;5072764;28;20452;-83
2023/12/12 02:51:58;;;;;;;12.70;6.13;;;;;;;;;;5072793;28;20508;-82
2023/12/12 02:54:24;;;;;;;11.13;5.70;;;;;;;;;;5072334;28;20483;-83
2023/12/12 02:56:52;;;;;;;9.13;5.80;;;;;;;;;;5075301;28;20475;-82
2023/12/12 02:59:19;;;;;;;9.27;6.00;;;;;;;;;;5070331;28;20494;-81
2023/12/12 03:01:47;;;;;;;10.27;5.13;;;;;;;;;;5068249;28;20488;-83
2023/12/12 03:04:14;;;;;;;9.50;5.80;;;;;;;;;;5073455;28;20824;-83
2023/12/12 03:06:40;;;;;;;6.67;5.27;;;;;;;;;;5073029;28;20508;-82
2023/12/12 03:09:07;;;;;;;13.03;5.80;;;;;;;;;;5074084;28;20457;-83
2023/12/12 03:11:34;;;;;;;9.93;5.63;;;;;;;;;;5075483;28;20450;-83
2023/12/12 03:14:02;;;;;;;9.23;6.80;;;;;;;;;;5074326;28;20491;-83
2023/12/12 03:16:28;;;;;;;8.70;5.53;;;;;;;;;;5072158;28;20575;-81
2023/12/12 03:18:54;;;;;;;8.43;5.37;;;;;;;;;;5072308;28;20483;-82
2023/12/12 03:21:21;;;;;;;8.20;5.37;;;;;;;;;;5073144;28;20451;-83
2023/12/12 03:23:47;;;;;;;10.10;5.90;;;;;;;;;;5066311;28;20476;-81
2023/12/12 03:26:14;;;;;;;7.60;5.50;;;;;;;;;;5066598;28;20448;-82
2023/12/12 03:28:40;;;;;;;13.50;5.77;;;;;;;;;;5074207;28;20877;-82
2023/12/12 03:31:09;;;;;;;11.53;5.70;;;;;;;;;;5069591;28;20531;-83
2023/12/12 03:33:35;;;;;;;10.90;6.03;;;;;;;;;;5075917;28;20491;-82
2023/12/12 03:36:06;;;;;;;9.17;6.30;;;;;;;;;;5074967;28;20446;-83
2023/12/12 03:38:33;;;;;;;10.70;6.50;;;;;;;;;;5069629;28;20494;-83
2023/12/12 03:40:59;;;;;;;10.33;5.60;;;;;;;;;;5072349;28;20452;-81
2023/12/12 03:43:25;;;;;;;10.00;6.20;;;;;;;;;;5072156;28;20456;-82
2023/12/12 03:45:52;;;;;;;13.63;6.47;;;;;;;;;;5073976;28;20472;-82
2023/12/12 03:48:20;;;;;;;12.43;7.90;;;;;;;;;;5074565;28;20701;-83
2023/12/12 03:50:48;;;;;;;10.53;5.70;;;;;;;;;;5065259;28;20999;-83
2023/12/12 03:53:14;;;;;;;6.40;5.50;;;;;;;;;;5071409;28;20492;-82
2023/12/12 03:55:41;;;;;;;10.60;6.00;;;;;;;;;;5073874;28;20459;-83
2023/12/12 03:58:07;;;;;;;14.13;6.57;;;;;;;;;;5073197;28;20449;-82
2023/12/12 04:00:33;;;;;;;9.40;6.13;;;;;;;;;;5074073;28;20464;-83
2023/12/12 04:03:00;;;;;;;12.30;6.30;;;;;;;;;;5075564;28;20948;-83
2023/12/12 04:05:28;;;;;;;16.97;6.10;;;;;;;;;;5078716;28;20464;-83
2023/12/12 04:07:54;;;;;;;9.97;6.13;;;;;;;;;;5076688;28;20472;-82
2023/12/12 04:10:20;;;;;;;10.97;6.80;;;;;;;;;;5077413;28;20483;-82
2023/12/12 04:12:48;;;;;;;8.03;5.77;;;;;;;;;;5078098;28;20523;-82
2023/12/12 04:15:14;;;;;;;12.23;6.40;;;;;;;;;;5071877;28;20480;-83
2023/12/12 04:17:41;;;;;;;12.67;7.07;;;;;;;;;;5078201;28;20480;-82
2023/12/12 04:20:08;;;;;;;10.63;7.03;;;;;;;;;;5070876;28;20465;-82
2023/12/12 04:22:36;;;;;;;12.47;6.60;;;;;;;;;;5078308;28;20448;-83
2023/12/12 04:25:03;;;;;;;9.47;6.63;;;;;;;;;;5079142;28;20885;-83
2023/12/12 04:27:29;;;;;;;9.13;6.40;;;;;;;;;;5075484;28;20455;-83
2023/12/12 04:29:56;;;;;;;10.80;6.80;;;;;;;;;;5076113;28;20488;-82
2023/12/12 04:32:22;;;;;;;8.40;6.43;;;;;;;;;;5077365;28;20476;-83
2023/12/12 04:34:49;;;;;;;10.87;6.33;;;;;;;;;;5078699;28;20475;-82
2023/12/12 04:37:15;;;;;;;12.10;6.53;;;;;;;;;;5077745;28;20460;-82
2023/12/12 04:39:43;;;;;;;15.10;7.53;;;;;;;;;;5073729;28;20487;-83
2023/12/12 04:42:12;;;;;;;9.77;6.50;;;;;;;;;;5075389;28;20470;-82
2023/12/12 04:44:41;;;;;;;12.23;7.57;;;;;;;;;;5078233;28;21515;-83
2023/12/12 04:47:07;;;;;;;12.10;6.10;;;;;;;;;;5071989;28;20465;-83
2023/12/12 04:49:34;;;;;;;9.20;6.80;;;;;;;;;;5078335;28;20556;-83
2023/12/12 04:52:01;;;;;;;14.67;7.50;;;;;;;;;;5070963;28;20470;-82
2023/12/12 04:54:27;;;;;;;9.70;6.60;;;;;;;;;;5068125;28;20471;-82
2023/12/12 04:56:56;;;;;;;10.50;6.53;;;;;;;;;;5076725;28;20484;-81
2023/12/12 04:59:23;;;;;;;10.20;7.17;;;;;;;;;;5077827;28;20455;-82
2023/12/12 05:01:49;;;;;;;12.37;7.17;;;;;;;;;;5077165;28;20460;-82
2023/12/12 05:04:16;;;;;;;11.80;6.87;;;;;;;;;;5078694;28;21345;-82
2023/12/12 05:06:42;;;;;;;10.00;6.60;;;;;;;;;;5079208;28;20440;-82
2023/12/12 05:09:09;;;;;;;13.03;6.00;;;;;;;;;;5078582;28;21392;-83
2023/12/12 05:11:36;;;;;;;16.13;7.90;;;;;;;;;;5077506;28;20538;-82
2023/12/12 05:14:06;;;;;;;14.00;7.07;;;;;;;;;;5076058;28;20495;-83
2023/12/12 05:16:32;;;;;;;8.47;6.50;;;;;;;;;;5070694;28;20452;-83
2023/12/12 05:18:59;;;;;;;13.93;8.67;;;;;;;;;;5079947;28;20487;-84
2023/12/12 05:21:26;;;;;;;10.87;7.70;;;;;;;;;;5076587;28;20484;-83
2023/12/12 05:23:52;;;;;;;15.70;7.10;;;;;;;;;;5077968;28;20444;-83
2023/12/12 05:26:19;;;;;;;14.43;8.33;;;;;;;;;;5077010;28;20536;-83
2023/12/12 05:28:46;;;;;;;12.50;7.40;;;;;;;;;;5077920;28;20494;-83
2023/12/12 05:31:13;;;;;;;12.20;7.80;;;;;;;;;;5068936;28;20487;-83
2023/12/12 05:33:40;;;;;;;12.73;7.13;;;;;;;;;;5075279;28;20518;-82
2023/12/12 05:36:07;;;;;;;11.20;7.97;;;;;;;;;;5075137;28;20480;-81
2023/12/12 05:38:33;;;;;;;15.63;8.77;;;;;;;;;;5073668;28;20458;-82
2023/12/12 05:41:00;;;;;;;13.20;9.33;;;;;;;;;;5075999;28;20901;-82
2023/12/12 05:43:26;;;;;;;17.50;10.63;;;;;;;;;;5070528;28;21174;-82
2023/12/12 05:45:52;;;;;;;16.47;10.13;;;;;;;;;;5072974;28;20474;-82
2023/12/12 05:48:20;;;;;;;22.03;12.00;;;;;;;;;;5079898;28;20807;-82
2023/12/12 05:50:47;;;;;;;20.13;10.70;;;;;;;;;;5061286;28;20464;-84
2023/12/12 05:53:14;;;;;;;16.53;10.20;;;;;;;;;;5073494;28;20555;-83
2023/12/12 05:55:40;;;;;;;19.90;12.20;;;;;;;;;;5075566;28;20455;-83
2023/12/12 05:58:07;;;;;;;15.97;10.17;;;;;;;;;;5079686;28;20496;-83
2023/12/12 06:00:34;;;;;;;19.97;12.20;;;;;;;;;;5077592;28;20453;-82
2023/12/12 06:03:01;;;;;;;28.40;13.90;;;;;;;;;;5079293;28;20479;-83
2023/12/12 06:05:29;;;;;;;21.63;14.70;;;;;;;;;;5074660;28;20452;-84
2023/12/12 06:07:56;;;;;;;21.27;14.13;;;;;;;;;;5077212;28;21157;-83
2023/12/12 06:10:23;;;;;;;37.20;16.80;;;;;;;;;;5068635;28;20487;-82
2023/12/12 06:12:49;;;;;;;18.30;11.67;;;;;;;;;;5075898;28;20491;-82
2023/12/12 06:15:16;;;;;;;30.63;18.90;;;;;;;;;;5069539;28;20480;-82
2023/12/12 06:17:42;;;;;;;22.23;13.67;;;;;;;;;;5078621;28;21036;-81
2023/12/12 06:20:09;;;;;;;24.17;16.10;;;;;;;;;;5071164;28;20456;-83
2023/12/12 06:22:37;;;;;;;34.87;19.40;;;;;;;;;;5074538;28;20539;-82
2023/12/12 06:25:04;;;;;;;30.93;18.93;;;;;;;;;;5078469;28;20524;-81
2023/12/12 06:27:30;;;;;;;36.43;21.00;;;;;;;;;;5075420;28;20472;-81
2023/12/12 06:29:57;;;;;;;34.10;19.90;;;;;;;;;;5077071;28;20443;-81
2023/12/12 06:32:23;;;;;;;38.40;22.90;;;;;;;;;;5077514;28;20502;-82
2023/12/12 06:34:50;;;;;;;37.20;21.87;;;;;;;;;;5074297;28;20449;-82
2023/12/12 06:37:16;;;;;;;30.83;20.10;;;;;;;;;;5069194;28;20478;-82
2023/12/12 06:39:44;;;;;;;30.83;18.50;;;;;;;;;;5070307;28;20459;-81
2023/12/12 06:42:11;;;;;;;29.17;19.90;;;;;;;;;;5073060;28;20482;-82
2023/12/12 06:44:37;;;;;;;35.57;19.60;;;;;;;;;;5077409;28;20448;-81
2023/12/12 06:47:04;;;;;;;32.20;19.53;;;;;;;;;;5062381;28;20453;-81
2023/12/12 06:49:32;;;;;;;33.60;21.00;;;;;;;;;;5068339;28;20464;-81
2023/12/12 06:52:00;;;;;;;32.10;20.87;;;;;;;;;;5073818;28;20536;-81
2023/12/12 06:54:27;;;;;;;42.10;21.37;;;;;;;;;;5075411;28;20563;-82
2023/12/12 06:56:55;;;;;;;33.93;20.27;;;;;;;;;;5070152;28;20449;-81
2023/12/12 06:59:21;;;;;;;31.00;19.63;;;;;;;;;;5075952;28;20907;-81
2023/12/12 07:01:47;;;;;;;29.87;19.20;;;;;;;;;;5071074;28;20479;-81
2023/12/12 07:04:14;;;;;;;32.33;21.20;;;;;;;;;;5071944;28;20454;-82
2023/12/12 07:06:41;;;;;;;30.27;20.07;;;;;;;;;;5066318;28;20539;-82
2023/12/12 07:09:10;;;;;;;31.40;20.17;;;;;;;;;;5068977;28;20487;-82
2023/12/12 07:11:37;;;;;;;39.10;22.13;;;;;;;;;;5065107;28;20464;-81
2023/12/12 07:14:05;;;;;;;38.47;23.90;;;;;;;;;;5075218;28;20503;-81
2023/12/12 07:16:31;;;;;;;30.33;19.33;;;;;;;;;;5071939;28;20456;-80
2023/12/12 07:18:58;;;;;;;34.60;20.20;;;;;;;;;;5076493;28;20476;-80
2023/12/12 07:21:24;;;;;;;28.63;18.83;;;;;;;;;;5066586;28;20872;-81
2023/12/12 07:23:51;;;;;;;33.97;18.23;;;;;;;;;;5079138;28;20472;-82
2023/12/12 07:26:20;;;;;;;30.73;17.30;;;;;;;;;;5079105;28;20525;-81
2023/12/12 07:28:47;;;;;;;31.60;17.83;;;;;;;;;;5079036;28;20514;-82
2023/12/12 07:31:15;;;;;;;27.30;15.87;;;;;;;;;;5078148;28;20851;-83
2023/12/12 07:33:41;;;;;;;27.70;15.50;;;;;;;;;;5077263;28;20497;-83
2023/12/12 07:36:08;;;;;;;26.90;16.30;;;;;;;;;;5079817;28;20491;-82
2023/12/12 07:38:34;;;;;;;28.20;15.07;;;;;;;;;;5082192;28;20474;-84
2023/12/12 07:41:01;;;;;;;25.00;13.40;;;;;;;;;;5081627;28;20995;-83
2023/12/12 07:43:27;;;;;;;25.23;13.57;;;;;;;;;;5081338;28;20956;-83
2023/12/12 07:45:54;;;;;;;21.57;12.63;;;;;;;;;;5081284;28;20495;-82
2023/12/12 07:48:22;;;;;;;21.40;12.90;;;;;;;;;;5081536;28;21115;-82
2023/12/12 07:50:49;;;;;;;26.13;12.57;;;;;;;;;;5075631;28;20453;-83
2023/12/12 07:53:15;;;;;;;21.83;13.33;;;;;;;;;;5075089;28;20861;-82
2023/12/12 07:55:42;;;;;;;20.03;12.00;;;;;;;;;;5080514;28;20570;-81
2023/12/12 07:58:08;;;;;;;21.07;12.13;;;;;;;;;;5076934;28;20857;-82
2023/12/12 08:00:35;;;;;;;16.50;12.10;;;;;;;;;;5077244;28;20519;-83
2023/12/12 08:03:01;;;;;;;26.27;11.37;;;;;;;;;;5076235;28;20481;-81
2023/12/12 08:05:29;;;;;;;27.73;11.37;;;;;;;;;;5076148;28;20441;-84
2023/12/12 08:07:56;;;;;;;22.07;11.50;;;;;;;;;;5075982;28;20483;-83
2023/12/12 08:10:22;;;;;;;25.30;12.97;;;;;;;;;;5075866;28;20456;-83
2023/12/12 08:12:49;;;;;;;23.73;11.33;;;;;;;;;;5076167;28;20483;-83
2023/12/12 08:15:15;;;;;;;22.03;11.97;;;;;;;;;;5057992;28;21110;-81
2023/12/12 08:17:42;;;;;;;21.10;11.97;;;;;;;;;;5073666;28;21106;-80
2023/12/12 08:20:10;;;;;;;23.67;10.80;;;;;;;;;;5071217;28;20488;-81
2023/12/12 08:22:38;;;;;;;20.47;11.57;;;;;;;;;;5074655;28;20489;-82
2023/12/12 08:25:05;;;;;;;21.10;12.47;;;;;;;;;;5077196;28;21157;-83
2023/12/12 08:27:32;;;;;;;26.43;10.10;;;;;;;;;;5077403;28;20450;-83
2023/12/12 08:29:58;;;;;;;18.10;9.90;;;;;;;;;;5075139;28;20464;-83
2023/12/12 08:32:24;;;;;;;24.47;11.50;;;;;;;;;;5075539;28;20478;-82
2023/12/12 08:34:51;;;;;;;20.67;10.37;;;;;;;;;;5077113;28;20487;-81
2023/12/12 08:37:17;;;;;;;26.83;12.47;;;;;;;;;;5076859;28;20485;-83
2023/12/12 08:39:45;;;;;;;15.93;10.20;;;;;;;;;;5073148;28;20459;-82
2023/12/12 08:42:13;;;;;;;19.43;10.87;;;;;;;;;;5078330;28;20972;-82
2023/12/12 08:44:41;;;;;;;12.90;9.10;;;;;;;;;;5078968;28;20449;-83
2023/12/12 08:47:07;;;;;;;14.60;8.03;;;;;;;;;;5072556;28;20461;-83
2023/12/12 08:49:37;;;;;;;16.80;9.50;;;;;;;;;;5077531;28;20977;-82
2023/12/12 08:52:04;;;;;;;17.87;8.73;;;;;;;;;;5065468;28;20468;-81
2023/12/12 08:54:32;;;;;;;18.00;9.70;;;;;;;;;;5068582;28;20974;-83
2023/12/12 08:57:02;;;;;;;16.93;9.57;;;;;;;;;;5074385;28;20538;-82
2023/12/12 08:59:28;;;;;;;20.00;8.50;;;;;;;;;;5070209;28;20491;-80
2023/12/12 09:01:55;;;;;;;21.30;8.63;;;;;;;;;;5078390;28;20551;-82
2023/12/12 09:04:21;;;;;;;22.63;8.20;;;;;;;;;;5074514;28;20444;-82
2023/12/12 09:06:48;;;;;;;16.03;9.10;;;;;;;;;;5076159;28;20459;-81
2023/12/12 09:09:15;;;;;;;14.47;8.53;;;;;;;;;;5071973;28;20456;-81
2023/12/12 09:11:41;;;;;;;12.70;9.10;;;;;;;;;;5069987;28;20452;-83
2023/12/12 09:14:09;;;;;;;13.67;8.40;;;;;;;;;;5069083;28;20535;-81
2023/12/12 09:16:36;;;;;;;10.97;9.17;;;;;;;;;;5074902;28;20459;-84
2023/12/12 09:19:02;;;;;;;12.67;9.20;;;;;;;;;;5073025;28;20478;-84
2023/12/12 09:21:29;;;;;;;15.23;9.93;;;;;;;;;;5075816;28;20476;-83
2023/12/12 09:23:55;;;;;;;13.53;8.97;;;;;;;;;;5074553;28;20496;-82
2023/12/12 09:26:22;;;;;;;13.00;9.20;;;;;;;;;;5077141;28;20469;-82
2023/12/12 09:28:48;;;;;;;16.67;10.03;;;;;;;;;;5077197;28;20495;-80
2023/12/12 09:31:24;;;;;;;14.43;9.30;;;;;;;;;;5077831;28;20511;-82
2023/12/12 09:33:51;;;;;;;14.17;9.90;;;;;;;;;;5068190;28;21083;-83
2023/12/12 09:36:17;;;;;;;11.47;9.00;;;;;;;;;;5077301;28;20471;-82
2023/12/12 09:38:44;;;;;;;11.73;9.77;;;;;;;;;;5076182;28;20571;-83
2023/12/12 09:41:13;;;;;;;11.70;9.00;;;;;;;;;;5075621;28;21041;-83
2023/12/12 09:43:40;;;;;;;9.80;8.90;;;;;;;;;;5077333;28;20481;-83
2023/12/12 09:46:08;;;;;;;14.10;9.90;;;;;;;;;;5074424;28;20463;-82
2023/12/12 09:48:36;;;;;;;12.20;9.17;;;;;;;;;;5077941;28;20451;-83
2023/12/12 09:51:03;;;;;;;11.10;9.73;;;;;;;;;;5073915;28;21022;-81
2023/12/12 09:53:35;;;;;;;10.10;9.10;;;;;;;;;;5067964;28;20464;-83
2023/12/12 09:56:02;;;;;;;12.27;10.60;;;;;;;;;;5075799;28;20448;-82
2023/12/12 09:58:29;;;;;;;12.83;8.97;;;;;;;;;;5074906;28;20452;-82
2023/12/12 10:00:56;;;;;;;10.90;9.10;;;;;;;;;;5071738;28;20459;-82
2023/12/12 10:03:23;;;;;;;13.73;9.73;;;;;;;;;;5067267;28;20491;-83
2023/12/12 10:05:54;;;;;;;13.00;9.17;;;;;;;;;;5070872;28;20480;-81
2023/12/12 10:08:20;;;;;;;10.73;7.83;;;;;;;;;;5079010;28;20464;-82
2023/12/12 10:10:51;;;;;;;11.63;8.17;;;;;;;;;;5073817;28;20455;-81
2023/12/12 10:13:17;;;;;;;14.20;7.60;;;;;;;;;;5078274;28;20694;-82
2023/12/12 10:15:43;;;;;;;8.47;7.57;;;;;;;;;;5073181;28;20523;-81
2023/12/12 10:18:10;;;;;;;9.03;8.13;;;;;;;;;;5074743;28;20452;-81
2023/12/12 10:20:36;;;;;;;8.63;7.73;;;;;;;;;;5077779;28;20521;-81
2023/12/12 10:23:04;;;;;;;19.30;8.67;;;;;;;;;;5078059;28;20482;-81
2023/12/12 10:25:32;;;;;;;13.67;8.20;;;;;;;;;;5078997;28;20456;-81
2023/12/12 10:27:58;;;;;;;17.37;7.80;;;;;;;;;;5074298;28;20518;-82
2023/12/12 10:30:26;;;;;;;9.17;7.10;;;;;;;;;;5078388;28;20486;-82
2023/12/12 10:32:53;;;;;;;14.70;9.60;;;;;;;;;;5072323;28;20453;-82
2023/12/12 10:35:20;;;;;;;13.00;7.50;;;;;;;;;;5076278;28;20515;-81
2023/12/12 10:37:46;;;;;;;14.17;9.43;;;;;;;;;;5073692;28;20451;-81
2023/12/12 10:40:15;;;;;;;12.83;7.67;;;;;;;;;;5075275;28;20483;-82
2023/12/12 10:42:42;;;;;;;14.67;7.47;;;;;;;;;;5068216;28;20517;-82
2023/12/12 10:45:11;;;;;;;12.20;7.30;;;;;;;;;;5073701;28;20562;-82
2023/12/12 10:47:40;;;;;;;10.73;7.00;;;;;;;;;;5065593;28;20495;-83
2023/12/12 10:50:09;;;;;;;20.00;7.60;;;;;;;;;;5073855;28;20476;-82
2023/12/12 10:52:36;;;;;;;16.37;8.27;;;;;;;;;;5071662;28;20535;-82
2023/12/12 10:55:02;;;;;;;12.33;6.70;;;;;;;;;;5076254;28;20479;-83
2023/12/12 10:57:31;;;;;;;11.73;7.17;;;;;;;;;;5070661;28;20440;-82
2023/12/12 10:59:58;;;;;;;12.73;6.53;;;;;;;;;;5076105;28;20531;-81
2023/12/12 11:02:25;;;;;;;9.60;6.33;;;;;;;;;;5076119;28;20518;-81
2023/12/12 11:04:52;;;;;;;13.23;5.83;;;;;;;;;;5076795;28;20867;-81
2023/12/12 11:07:18;;;;;;;14.97;6.50;;;;;;;;;;5077220;28;20459;-81
2023/12/12 11:09:44;;;;;;;8.17;5.30;;;;;;;;;;5078950;28;20479;-82
2023/12/12 11:12:11;;;;;;;10.80;5.73;;;;;;;;;;5081234;28;20579;-82
2023/12/12 11:14:39;;;;;;;7.20;5.73;;;;;;;;;;5077730;28;20523;-79
2023/12/12 11:17:09;;;;;;;14.40;6.63;;;;;;;;;;5080796;28;20459;-81
2023/12/12 11:19:36;;;;;;;14.00;6.77;;;;;;;;;;5076553;28;20513;-82
2023/12/12 11:22:03;;;;;;;9.07;6.73;;;;;;;;;;5074979;28;20486;-81
2023/12/12 11:24:52;;;;;;;13.63;6.00;;;;;;;;;;5081772;28;20476;-81
2023/12/12 11:27:18;;;;;;;12.23;6.30;;;;;;;;;;5079499;28;20815;-81
2023/12/12 11:29:46;;;;;;;8.07;5.73;;;;;;;;;;5081484;28;20536;-82
2023/12/12 11:32:16;;;;;;;12.93;5.87;;;;;;;;;;5080546;28;20479;-81
2023/12/12 11:34:43;;;;;;;8.00;5.87;;;;;;;;;;5069292;28;20545;-82
2023/12/12 11:37:10;;;;;;;17.57;5.90;;;;;;;;;;5081290;28;20456;-81
2023/12/12 11:39:49;;;;;;;9.57;5.70;;;;;;;;;;5081352;28;20471;-82
2023/12/12 11:42:19;;;;;;;7.33;4.93;;;;;;;;;;5081643;28;20463;-82
2023/12/12 11:44:49;;;;;;;23.80;6.87;;;;;;;;;;5074009;28;20456;-81
2023/12/12 11:47:16;;;;;;;10.70;6.20;;;;;;;;;;5079651;28;20464;-82
2023/12/12 11:49:43;;;;;;;13.83;5.57;;;;;;;;;;5081522;28;20444;-82
2023/12/12 11:52:10;;;;;;;14.87;6.03;;;;;;;;;;5081772;28;20464;-82
2023/12/12 11:54:37;;;;;;;14.57;6.30;;;;;;;;;;5079317;28;20492;-81
2023/12/12 11:57:04;;;;;;;11.70;6.10;;;;;;;;;;5074890;28;20522;-81
2023/12/12 11:59:32;;;;;;;11.50;6.30;;;;;;;;;;5077658;28;20484;-81
2023/12/12 12:02:01;;;;;;;10.00;5.83;;;;;;;;;;5079101;28;20483;-81
2023/12/12 12:04:27;;;;;;;13.70;7.27;;;;;;;;;;5080248;28;20578;-81
2023/12/12 12:06:53;;;;;;;15.07;6.00;;;;;;;;;;5071973;28;20436;-81
2023/12/12 12:09:20;;;;;;;19.07;8.13;;;;;;;;;;5074175;28;20452;-80
2023/12/12 12:11:47;;;;;;;9.33;6.57;;;;;;;;;;5078813;28;20987;-80
2023/12/12 12:14:15;;;;;;;13.50;7.07;;;;;;;;;;5079792;28;20550;-81
2023/12/12 12:16:42;;;;;;;13.80;6.50;;;;;;;;;;5076699;28;20483;-81
2023/12/12 12:19:28;;;;;;;7.80;5.80;;;;;;;;;;5076496;28;20444;-80
2023/12/12 12:21:55;;;;;;;15.10;6.43;;;;;;;;;;5073079;28;20487;-80
2023/12/12 12:24:22;;;;;;;12.37;5.67;;;;;;;;;;5078103;28;20450;-81
2023/12/12 12:26:49;;;;;;;11.37;6.27;;;;;;;;;;5079691;28;20475;-80
2023/12/12 12:29:15;;;;;;;13.03;6.90;;;;;;;;;;5076683;28;20472;-83
2023/12/12 12:31:41;;;;;;;16.30;7.10;;;;;;;;;;5079485;28;20471;-82
2023/12/12 12:34:16;;;;;;;11.80;6.97;;;;;;;;;;5079759;28;20468;-82
2023/12/12 12:36:42;;;;;;;8.53;6.90;;;;;;;;;;5075578;28;20501;-82
2023/12/12 12:39:12;;;;;;;14.70;6.20;;;;;;;;;;5080321;28;20456;-83
2023/12/12 12:41:39;;;;;;;14.47;6.90;;;;;;;;;;5067663;28;21020;-85
2023/12/12 12:44:06;;;;;;;12.17;6.30;;;;;;;;;;5076542;28;20451;-82
2023/12/12 12:46:32;;;;;;;18.30;6.97;;;;;;;;;;5076845;28;20481;-81
2023/12/12 12:48:59;;;;;;;8.77;6.70;;;;;;;;;;5075262;28;20455;-81
2023/12/12 12:51:25;;;;;;;12.97;6.47;;;;;;;;;;5070825;28;20535;-83
2023/12/12 12:53:53;;;;;;;10.10;6.70;;;;;;;;;;5068845;28;21008;-81
2023/12/12 12:56:21;;;;;;;10.80;5.80;;;;;;;;;;5068257;28;20575;-81
2023/12/12 12:58:47;;;;;;;12.10;6.40;;;;;;;;;;5067335;28;20448;-81
2023/12/12 13:01:13;;;;;;;10.03;6.27;;;;;;;;;;5065806;28;20458;-82
2023/12/12 13:03:41;;;;;;;13.90;5.83;;;;;;;;;;5073173;28;20552;-81
2023/12/12 13:06:07;;;;;;;8.90;5.43;;;;;;;;;;5069811;28;20487;-81
2023/12/12 13:08:34;;;;;;;10.40;5.77;;;;;;;;;;5064557;28;20499;-82
2023/12/12 13:11:00;;;;;;;10.60;5.90;;;;;;;;;;5070708;28;20483;-81
2023/12/12 13:13:28;;;;;;;12.80;5.33;;;;;;;;;;5069484;28;20520;-83
2023/12/12 13:15:54;;;;;;;8.80;4.90;;;;;;;;;;5066542;28;20711;-82
2023/12/12 13:18:21;;;;;;;16.57;6.10;;;;;;;;;;5068849;28;20952;-82
2023/12/12 13:20:47;;;;;;;12.77;6.23;;;;;;;;;;5071731;28;20452;-81
2023/12/12 13:23:14;;;;;;;10.27;6.50;;;;;;;;;;5069666;28;20440;-83
2023/12/12 13:25:40;;;;;;;10.97;6.37;;;;;;;;;;5069361;28;20575;-82
2023/12/12 13:28:07;;;;;;;16.70;6.40;;;;;;;;;;5071138;28;20501;-83
2023/12/12 13:30:36;;;;;;;21.23;6.60;;;;;;;;;;5066182;28;20441;-81
2023/12/12 13:33:04;;;;;;;9.00;6.20;;;;;;;;;;5074960;28;20448;-83
2023/12/12 13:35:31;;;;;;;12.70;6.90;;;;;;;;;;5074644;28;20484;-82
2023/12/12 13:37:57;;;;;;;12.03;6.33;;;;;;;;;;5077323;28;20456;-83
2023/12/12 13:40:24;;;;;;;12.87;6.93;;;;;;;;;;5072736;28;20555;-86
2023/12/12 13:42:50;;;;;;;7.70;6.00;;;;;;;;;;5070534;28;20469;-85
2023/12/12 13:45:18;;;;;;;8.60;5.37;;;;;;;;;;5073820;28;20510;-85
2023/12/12 13:47:46;;;;;;;10.53;5.77;;;;;;;;;;5070055;28;20455;-84
2023/12/12 13:50:13;;;;;;;10.30;7.20;;;;;;;;;;5071792;28;20480;-84
2023/12/12 13:52:39;;;;;;;8.50;6.10;;;;;;;;;;5077267;28;20448;-84
2023/12/12 13:55:06;;;;;;;11.73;5.67;;;;;;;;;;5067557;28;20515;-85
2023/12/12 13:57:33;;;;;;;11.87;6.80;;;;;;;;;;5068620;28;20445;-84
2023/12/12 13:59:59;;;;;;;7.73;6.40;;;;;;;;;;5074217;28;20467;-86
2023/12/12 14:02:26;;;;;;;15.33;6.67;;;;;;;;;;5072408;28;20451;-84
2023/12/12 14:04:54;;;;;;;11.37;5.60;;;;;;;;;;5063484;28;20495;-83
2023/12/12 14:07:22;;;;;;;10.30;6.30;;;;;;;;;;5067161;28;20449;-82
2023/12/12 14:09:48;;;;;;;11.80;6.10;;;;;;;;;;5071959;28;20806;-86
2023/12/12 14:12:15;;;;;;;7.40;5.97;;;;;;;;;;5070819;28;20513;-86
2023/12/12 14:14:41;;;;;;;12.80;5.23;;;;;;;;;;5068561;28;20951;-84
2023/12/12 14:17:08;;;;;;;11.77;6.63;;;;;;;;;;5070844;28;20946;-85
2023/12/12 14:19:35;;;;;;;10.67;6.13;;;;;;;;;;5075300;28;20440;-87
2023/12/12 14:22:02;;;;;;;9.23;6.67;;;;;;;;;;5068420;28;20490;-84
2023/12/12 14:24:30;;;;;;;9.53;5.33;;;;;;;;;;5071905;28;20880;-85
2023/12/12 14:26:56;;;;;;;15.30;5.83;;;;;;;;;;5073319;28;20556;-82
2023/12/12 14:29:23;;;;;;;10.30;6.27;;;;;;;;;;5075495;28;20456;-85